Flight Track Log - Related Links

Times and Time Zones

All times are in EDT time to prevent confusion due to time zone crossing. See the EGF3153 flight status page for this flight to view local times or setup timezone preferences in your user account.

Time Position Orientation Groundspeed Altitude Reporting Facility
EDT Latitude Longitude Course Direction KTS MPH feet Rate Location/Type
Sun 08:51:15 PM 42.0444 -87.9903 346° North 201 231 3,800  Level Chicago Center
Sun 08:51:45 PM 42.0833 -88.0167 333° Northwest 244 281 4,900 629 Climbing Chicago TRACON
Sun 08:53:00 PM 42.3496 -88.1283 346° North  Level Estimated
Sun 08:53:19 PM 42.1806 -88.0153 North 264 304 5,100  Level Chicago Center
Sun 08:54:00 PM 42.4416 -88.1842 346° North  Level Estimated
Sun 08:54:21 PM 42.2569 -88.0128 North 272 313 7,300  Level Chicago Center
Sun 08:55:00 PM 42.5421 -88.1935 356° North  Level FlightAware
Sun 08:55:23 PM 42.3417 -88.0156 359° North 282 325 9,500  Level Chicago Center
Sun 08:56:00 PM 42.6334 -88.2514 346° North  Level Estimated
Sun 08:56:26 PM 42.4297 -88.0169 359° North 311 358 11,500  Level Chicago Center
Sun 08:57:27 PM 42.5378 -88.0353 353° North 330 380 14,100 1,935 Climbing Chicago Center
Sun 08:58:30 PM 42.6256 -88.0814 339° North 338 389 15,500 1,286 Climbing Chicago Center
Sun 08:59:33 PM 42.7122 -88.1475 331° Northwest 355 409 16,800 1,296 Climbing Chicago Center
Sun 09:00:35 PM 42.8067 -88.2131 333° Northwest 376 433 18,200 1,258 Climbing Chicago Center
Sun 09:01:37 PM 42.9033 -88.2825 332° Northwest 390 449 19,400 1,306 Climbing Chicago Center
Sun 09:02:39 PM 43.0239 -88.3683 333° Northwest 404 465 20,900 1,258 Climbing Chicago Center
Sun 09:03:41 PM 43.1272 -88.4428 332° Northwest 415 478 22,000 532 Climbing Chicago Center
Sun 09:04:43 PM 43.2347 -88.5206 332° Northwest 428 493 22,000  Level Chicago Center
Sun 09:05:45 PM 43.3464 -88.6000 333° Northwest 441 507 22,000  Level Chicago Center
Sun 09:06:47 PM 43.4581 -88.6817 332° Northwest 442 509 22,000  Level Chicago Center
Sun 09:07:49 PM 43.5672 -88.7619 332° Northwest 440 506 22,000 -484 Level Chicago Center
Sun 09:08:51 PM 43.6747 -88.8414 332° Northwest 437 503 21,000 -1,161 Descending Chicago Center
Sun 09:09:53 PM 43.7789 -88.9172 332° Northwest 430 495 19,600 -1,306 Descending Chicago Center
Sun 09:10:55 PM 43.8761 -88.9897 332° Northwest 409 471 18,300 -1,403 Descending Chicago Center
Sun 09:11:57 PM 43.9925 -89.0753 332° Northwest 397 457 16,700 -1,256 Descending Chicago Center
Sun 09:13:04 PM 44.0956 -89.1531 332° Northwest 392 451 15,600 -1,078 Descending Minneapolis Center
Sun 09:14:05 PM 44.1950 -89.2225 333° Northwest 386 444 14,400 -1,463 Descending Minneapolis Center
Sun 09:15:07 PM 44.3003 -89.2469 351° North 371 427 12,600 -1,742 Descending Minneapolis Center
Sun 09:16:09 PM 44.3986 -89.2689 351° North 350 403 10,800 -1,452 Descending Minneapolis Center
Sun 09:17:11 PM 44.4778 -89.2878 350° North 308 354 9,600 -1,306 Descending Minneapolis Center
Sun 09:18:13 PM 44.5564 -89.3056 351° North 278 320 8,100 -1,500 Descending Minneapolis Center
Sun 09:19:15 PM 44.6283 -89.3222 351° North 251 289 6,500 -1,561 Descending Minneapolis Center
Sun 09:20:16 PM 44.6958 -89.3392 350° North 237 273 4,900 -1,415 Descending Minneapolis Center
Sun 09:21:18 PM 44.7675 -89.3558 351° North 249 287 3,600 -774 Descending Minneapolis Center
Sun 09:22:20 PM 44.8172 -89.4006 327° Northwest 251 289 3,300 -290 Descending Minneapolis Center
Sun 09:23:22 PM 44.8114 -89.4794 264° West 200 230 3,000 -290 Descending Minneapolis Center
Sun 09:24:24 PM 44.8011 -89.5442 257° West 163 188 2,700 -484 Descending Minneapolis Center
Sun 09:25:26 PM 44.7925 -89.5928 256° West 126 145 2,000 -585 Descending Minneapolis Center
Sun 09:26:27 PM 44.7864 -89.6333 258° West 121 139 1,500 -492 Descending Minneapolis Center

Login

Don't have an account? Register now (free) for customized features, flight alerts, and more!